sensor_id;sensor_type;location;lat;lon;timestamp;pressure;altitude;pressure_sealevel;temperature;humidity
37304;BME280;23188;51.188;16.374;2022-12-29T00:02:20;99847.23;;;8.21;81.41
37304;BME280;23188;51.188;16.374;2022-12-29T00:06:21;99844.69;;;8.20;81.61
37304;BME280;23188;51.188;16.374;2022-12-29T00:10:23;99825.55;;;8.05;82.33
37304;BME280;23188;51.188;16.374;2022-12-29T00:14:24;99823.73;;;8.17;81.98
37304;BME280;23188;51.188;16.374;2022-12-29T00:18:44;99821.69;;;8.09;82.27
37304;BME280;23188;51.188;16.374;2022-12-29T00:22:46;99825.67;;;8.09;81.99
37304;BME280;23188;51.188;16.374;2022-12-29T00:31:30;99801.22;;;8.17;80.95
37304;BME280;23188;51.188;16.374;2022-12-29T00:35:53;99793.63;;;8.18;80.39
37304;BME280;23188;51.188;16.374;2022-12-29T00:39:56;99786.89;;;8.13;80.74
37304;BME280;23188;51.188;16.374;2022-12-29T00:44:16;99784.47;;;8.22;80.69
37304;BME280;23188;51.188;16.374;2022-12-29T00:48:18;99771.00;;;8.13;80.66
37304;BME280;23188;51.188;16.374;2022-12-29T00:52:21;99775.69;;;8.04;81.19
37304;BME280;23188;51.188;16.374;2022-12-29T00:56:22;99773.05;;;8.04;81.21
37304;BME280;23188;51.188;16.374;2022-12-29T01:00:24;99769.92;;;7.93;81.56
37304;BME280;23188;51.188;16.374;2022-12-29T01:04:26;99764.30;;;7.86;81.78
37304;BME280;23188;51.188;16.374;2022-12-29T01:08:28;99763.45;;;7.97;81.51
37304;BME280;23188;51.188;16.374;2022-12-29T01:12:30;99751.77;;;7.89;81.33
37304;BME280;23188;51.188;16.374;2022-12-29T01:16:45;99748.16;;;7.90;81.22
37304;BME280;23188;51.188;16.374;2022-12-29T01:20:47;99747.44;;;7.88;80.71
37304;BME280;23188;51.188;16.374;2022-12-29T01:24:49;99739.47;;;7.93;80.07
37304;BME280;23188;51.188;16.374;2022-12-29T01:28:50;99742.01;;;7.95;79.88
37304;BME280;23188;51.188;16.374;2022-12-29T01:32:52;99744.30;;;7.94;79.65
37304;BME280;23188;51.188;16.374;2022-12-29T01:36:53;99738.39;;;7.96;79.58
37304;BME280;23188;51.188;16.374;2022-12-29T01:40:54;99736.35;;;7.99;79.46
37304;BME280;23188;51.188;16.374;2022-12-29T01:44:57;99729.23;;;8.00;79.06
37304;BME280;23188;51.188;16.374;2022-12-29T01:49:22;99729.13;;;8.02;78.77
37304;BME280;23188;51.188;16.374;2022-12-29T01:53:27;99716.95;;;8.05;78.70
37304;BME280;23188;51.188;16.374;2022-12-29T01:57:37;99709.00;;;8.10;78.36
37304;BME280;23188;51.188;16.374;2022-12-29T02:01:39;99711.14;;;8.17;77.80
37304;BME280;23188;51.188;16.374;2022-12-29T02:05:56;99710.77;;;8.21;77.59
37304;BME280;23188;51.188;16.374;2022-12-29T02:10:00;99696.91;;;8.23;77.18
37304;BME280;23188;51.188;16.374;2022-12-29T02:14:11;99696.41;;;8.24;76.92
37304;BME280;23188;51.188;16.374;2022-12-29T02:27:40;99680.66;;;8.22;77.06
37304;BME280;23188;51.188;16.374;2022-12-29T02:32:21;99692.44;;;8.24;76.77
37304;BME280;23188;51.188;16.374;2022-12-29T02:36:40;99695.94;;;8.30;76.61
37304;BME280;23188;51.188;16.374;2022-12-29T02:45:10;99685.59;;;8.27;76.02
37304;BME280;23188;51.188;16.374;2022-12-29T02:49:39;99691.70;;;8.33;75.89
37304;BME280;23188;51.188;16.374;2022-12-29T02:53:43;99685.78;;;8.41;75.96
37304;BME280;23188;51.188;16.374;2022-12-29T02:58:23;99692.74;;;8.48;76.71
37304;BME280;23188;51.188;16.374;2022-12-29T03:11:01;99702.95;;;8.58;76.24
37304;BME280;23188;51.188;16.374;2022-12-29T03:15:08;99693.08;;;8.54;75.96
37304;BME280;23188;51.188;16.374;2022-12-29T03:19:43;99694.91;;;8.54;75.11
37304;BME280;23188;51.188;16.374;2022-12-29T03:23:43;99677.41;;;8.57;74.88
37304;BME280;23188;51.188;16.374;2022-12-29T03:27:53;99689.18;;;8.64;74.95
37304;BME280;23188;51.188;16.374;2022-12-29T03:32:08;99682.60;;;8.59;74.64
37304;BME280;23188;51.188;16.374;2022-12-29T03:36:16;99671.14;;;8.58;74.78
37304;BME280;23188;51.188;16.374;2022-12-29T03:40:21;99673.17;;;8.60;74.56
37304;BME280;23188;51.188;16.374;2022-12-29T03:44:33;99676.09;;;8.57;74.69
37304;BME280;23188;51.188;16.374;2022-12-29T03:48:36;99670.69;;;8.53;74.96
37304;BME280;23188;51.188;16.374;2022-12-29T03:52:38;99660.09;;;8.53;75.30
37304;BME280;23188;51.188;16.374;2022-12-29T03:56:39;99661.77;;;8.54;75.04
37304;BME280;23188;51.188;16.374;2022-12-29T04:00:40;99658.62;;;8.54;74.88
37304;BME280;23188;51.188;16.374;2022-12-29T04:04:42;99657.52;;;8.63;74.85
37304;BME280;23188;51.188;16.374;2022-12-29T04:08:43;99651.35;;;8.62;75.04
37304;BME280;23188;51.188;16.374;2022-12-29T04:12:44;99656.45;;;8.60;74.98
37304;BME280;23188;51.188;16.374;2022-12-29T04:16:47;99660.78;;;8.61;75.29
37304;BME280;23188;51.188;16.374;2022-12-29T04:20:48;99659.08;;;8.65;74.96
37304;BME280;23188;51.188;16.374;2022-12-29T04:25:01;99662.67;;;8.64;74.40
37304;BME280;23188;51.188;16.374;2022-12-29T04:29:03;99648.91;;;8.70;74.63
37304;BME280;23188;51.188;16.374;2022-12-29T04:33:05;99649.09;;;8.79;74.39
37304;BME280;23188;51.188;16.374;2022-12-29T04:37:06;99641.75;;;8.77;74.57
37304;BME280;23188;51.188;16.374;2022-12-29T04:41:07;99638.66;;;8.71;74.73
37304;BME280;23188;51.188;16.374;2022-12-29T04:45:09;99634.09;;;8.68;74.62
37304;BME280;23188;51.188;16.374;2022-12-29T04:49:11;99629.50;;;8.70;74.84
37304;BME280;23188;51.188;16.374;2022-12-29T04:53:12;99620.98;;;8.66;75.14
37304;BME280;23188;51.188;16.374;2022-12-29T04:57:14;99617.72;;;8.68;75.59
37304;BME280;23188;51.188;16.374;2022-12-29T05:01:15;99621.08;;;8.70;76.14
37304;BME280;23188;51.188;16.374;2022-12-29T05:05:17;99622.54;;;8.63;76.49
37304;BME280;23188;51.188;16.374;2022-12-29T05:09:18;99615.20;;;8.61;76.73
37304;BME280;23188;51.188;16.374;2022-12-29T05:13:20;99608.73;;;8.60;76.82
37304;BME280;23188;51.188;16.374;2022-12-29T05:17:21;99608.25;;;8.54;76.35
37304;BME280;23188;51.188;16.374;2022-12-29T05:21:23;99604.52;;;8.57;76.39
37304;BME280;23188;51.188;16.374;2022-12-29T05:25:24;99599.38;;;8.50;77.19
37304;BME280;23188;51.188;16.374;2022-12-29T05:29:25;99602.50;;;8.43;76.99
37304;BME280;23188;51.188;16.374;2022-12-29T05:33:26;99615.66;;;8.39;76.80
37304;BME280;23188;51.188;16.374;2022-12-29T05:37:28;99603.68;;;8.24;77.05
37304;BME280;23188;51.188;16.374;2022-12-29T05:41:29;99602.88;;;8.18;76.36
37304;BME280;23188;51.188;16.374;2022-12-29T05:45:30;99608.80;;;8.10;76.21
37304;BME280;23188;51.188;16.374;2022-12-29T05:49:32;99609.31;;;8.04;76.18
37304;BME280;23188;51.188;16.374;2022-12-29T05:53:33;99613.92;;;7.96;75.61
37304;BME280;23188;51.188;16.374;2022-12-29T05:57:35;99606.94;;;7.95;75.61
37304;BME280;23188;51.188;16.374;2022-12-29T06:01:36;99601.75;;;7.93;75.63
37304;BME280;23188;51.188;16.374;2022-12-29T06:05:38;99590.59;;;7.90;75.70
37304;BME280;23188;51.188;16.374;2022-12-29T06:09:39;99585.78;;;7.83;75.41
37304;BME280;23188;51.188;16.374;2022-12-29T06:13:40;99590.25;;;7.83;75.15
37304;BME280;23188;51.188;16.374;2022-12-29T06:17:43;99591.08;;;7.83;75.32
37304;BME280;23188;51.188;16.374;2022-12-29T06:21:44;99600.23;;;7.79;75.44
37304;BME280;23188;51.188;16.374;2022-12-29T06:25:47;99595.45;;;7.73;75.73
37304;BME280;23188;51.188;16.374;2022-12-29T06:29:49;99591.59;;;7.71;75.17
37304;BME280;23188;51.188;16.374;2022-12-29T06:33:50;99598.72;;;7.65;75.59
37304;BME280;23188;51.188;16.374;2022-12-29T06:37:51;99601.83;;;7.70;75.34
37304;BME280;23188;51.188;16.374;2022-12-29T06:41:53;99600.64;;;7.69;75.28
37304;BME280;23188;51.188;16.374;2022-12-29T06:45:55;99609.30;;;7.77;75.59
37304;BME280;23188;51.188;16.374;2022-12-29T06:49:56;99611.43;;;7.83;75.61
37304;BME280;23188;51.188;16.374;2022-12-29T06:53:57;99614.80;;;7.85;75.98
37304;BME280;23188;51.188;16.374;2022-12-29T06:57:59;99616.67;;;7.94;76.21
37304;BME280;23188;51.188;16.374;2022-12-29T07:02:01;99610.30;;;7.97;75.93
37304;BME280;23188;51.188;16.374;2022-12-29T07:06:03;99615.44;;;8.04;75.66
37304;BME280;23188;51.188;16.374;2022-12-29T07:10:05;99604.45;;;8.14;75.82
37304;BME280;23188;51.188;16.374;2022-12-29T07:14:07;99607.80;;;8.22;76.11
37304;BME280;23188;51.188;16.374;2022-12-29T07:18:09;99607.42;;;8.27;76.31
37304;BME280;23188;51.188;16.374;2022-12-29T07:22:10;99609.58;;;8.27;76.16
37304;BME280;23188;51.188;16.374;2022-12-29T07:26:12;99607.02;;;8.32;76.34
37304;BME280;23188;51.188;16.374;2022-12-29T07:30:15;99610.52;;;8.32;76.74
37304;BME280;23188;51.188;16.374;2022-12-29T07:34:16;99605.13;;;8.28;77.45
37304;BME280;23188;51.188;16.374;2022-12-29T07:38:17;99610.15;;;8.37;77.46
37304;BME280;23188;51.188;16.374;2022-12-29T07:42:19;99613.98;;;8.38;78.02
37304;BME280;23188;51.188;16.374;2022-12-29T07:46:20;99617.48;;;8.39;78.11
37304;BME280;23188;51.188;16.374;2022-12-29T07:50:21;99616.02;;;8.40;78.86
37304;BME280;23188;51.188;16.374;2022-12-29T07:54:22;99615.66;;;8.39;78.99
37304;BME280;23188;51.188;16.374;2022-12-29T07:58:24;99616.52;;;8.40;78.96
37304;BME280;23188;51.188;16.374;2022-12-29T08:02:25;99614.42;;;8.43;78.46
37304;BME280;23188;51.188;16.374;2022-12-29T08:06:27;99621.66;;;8.53;78.69
37304;BME280;23188;51.188;16.374;2022-12-29T08:10:29;99619.80;;;8.59;78.60
37304;BME280;23188;51.188;16.374;2022-12-29T08:14:31;99611.80;;;8.70;77.58
37304;BME280;23188;51.188;16.374;2022-12-29T08:18:32;99612.32;;;8.80;77.47
37304;BME280;23188;51.188;16.374;2022-12-29T08:22:33;99613.94;;;8.92;77.15
37304;BME280;23188;51.188;16.374;2022-12-29T08:26:35;99620.03;;;8.98;77.28
37304;BME280;23188;51.188;16.374;2022-12-29T08:30:36;99623.00;;;9.05;77.06
37304;BME280;23188;51.188;16.374;2022-12-29T08:34:38;99624.98;;;8.97;77.12
37304;BME280;23188;51.188;16.374;2022-12-29T08:38:39;99627.09;;;9.04;76.60
37304;BME280;23188;51.188;16.374;2022-12-29T08:42:40;99629.24;;;9.10;76.35
37304;BME280;23188;51.188;16.374;2022-12-29T08:46:41;99622.77;;;9.18;76.56
37304;BME280;23188;51.188;16.374;2022-12-29T08:50:43;99625.66;;;9.21;76.62
37304;BME280;23188;51.188;16.374;2022-12-29T08:54:45;99623.78;;;9.27;77.32
37304;BME280;23188;51.188;16.374;2022-12-29T08:58:46;99633.16;;;9.31;76.87
37304;BME280;23188;51.188;16.374;2022-12-29T09:02:47;99639.12;;;9.39;77.30
37304;BME280;23188;51.188;16.374;2022-12-29T09:06:49;99637.71;;;9.50;77.14
37304;BME280;23188;51.188;16.374;2022-12-29T09:10:50;99635.05;;;9.50;76.74
37304;BME280;23188;51.188;16.374;2022-12-29T09:14:52;99626.72;;;9.65;76.55
37304;BME280;23188;51.188;16.374;2022-12-29T09:18:53;99635.08;;;9.60;77.14
37304;BME280;23188;51.188;16.374;2022-12-29T09:22:55;99626.03;;;9.82;77.32
37304;BME280;23188;51.188;16.374;2022-12-29T09:26:56;99629.27;;;9.96;78.62
37304;BME280;23188;51.188;16.374;2022-12-29T09:30:58;99622.64;;;10.15;78.40
37304;BME280;23188;51.188;16.374;2022-12-29T09:35:00;99620.33;;;10.36;77.54
37304;BME280;23188;51.188;16.374;2022-12-29T09:39:01;99608.90;;;10.46;77.54
37304;BME280;23188;51.188;16.374;2022-12-29T09:47:20;99599.40;;;10.67;76.94
37304;BME280;23188;51.188;16.374;2022-12-29T09:51:23;99598.92;;;10.67;76.70
37304;BME280;23188;51.188;16.374;2022-12-29T09:59:43;99607.89;;;10.66;77.30
37304;BME280;23188;51.188;16.374;2022-12-29T10:03:51;99604.42;;;10.70;77.87
37304;BME280;23188;51.188;16.374;2022-12-29T10:08:12;99605.63;;;10.71;77.20
37304;BME280;23188;51.188;16.374;2022-12-29T10:12:34;99608.52;;;10.64;77.16
37304;BME280;23188;51.188;16.374;2022-12-29T10:16:43;99601.53;;;10.63;76.17
37304;BME280;23188;51.188;16.374;2022-12-29T10:20:55;99613.41;;;10.59;74.96
37304;BME280;23188;51.188;16.374;2022-12-29T10:25:26;99611.66;;;10.64;75.69
37304;BME280;23188;51.188;16.374;2022-12-29T10:29:28;99614.24;;;10.69;75.41
37304;BME280;23188;51.188;16.374;2022-12-29T10:33:39;99625.70;;;10.70;74.58
37304;BME280;23188;51.188;16.374;2022-12-29T10:42:10;99603.12;;;10.60;71.44
37304;BME280;23188;51.188;16.374;2022-12-29T10:46:21;99605.43;;;10.59;72.34
37304;BME280;23188;51.188;16.374;2022-12-29T10:50:27;99614.91;;;10.48;72.09
37304;BME280;23188;51.188;16.374;2022-12-29T10:54:39;99608.73;;;10.47;72.48
37304;BME280;23188;51.188;16.374;2022-12-29T10:58:45;99604.39;;;10.56;72.32
37304;BME280;23188;51.188;16.374;2022-12-29T11:07:18;99593.25;;;10.66;70.90
37304;BME280;23188;51.188;16.374;2022-12-29T11:11:33;99586.31;;;10.69;70.45
37304;BME280;23188;51.188;16.374;2022-12-29T11:15:45;99579.31;;;10.68;70.56
37304;BME280;23188;51.188;16.374;2022-12-29T11:19:47;99561.73;;;10.71;70.24
37304;BME280;23188;51.188;16.374;2022-12-29T11:23:57;99549.84;;;10.66;70.68
37304;BME280;23188;51.188;16.374;2022-12-29T11:28:12;99550.88;;;10.69;71.35
37304;BME280;23188;51.188;16.374;2022-12-29T11:32:20;99546.71;;;10.66;71.22
37304;BME280;23188;51.188;16.374;2022-12-29T11:36:23;99545.38;;;10.66;71.22
37304;BME280;23188;51.188;16.374;2022-12-29T11:40:26;99549.72;;;10.67;70.50
37304;BME280;23188;51.188;16.374;2022-12-29T11:44:27;99551.17;;;10.66;70.81
37304;BME280;23188;51.188;16.374;2022-12-29T11:48:43;99553.70;;;10.67;71.08
37304;BME280;23188;51.188;16.374;2022-12-29T11:52:40;99556.41;;;10.71;71.55
37304;BME280;23188;51.188;16.374;2022-12-29T11:56:43;99558.23;;;10.81;71.54
37304;BME280;23188;51.188;16.374;2022-12-29T12:00:45;99551.33;;;10.88;71.21
37304;BME280;23188;51.188;16.374;2022-12-29T12:04:49;99555.02;;;10.91;71.01
37304;BME280;23188;51.188;16.374;2022-12-29T12:09:00;99559.02;;;10.91;70.92
37304;BME280;23188;51.188;16.374;2022-12-29T12:13:11;99551.72;;;10.93;71.68
37304;BME280;23188;51.188;16.374;2022-12-29T12:17:16;99540.81;;;10.86;71.11
37304;BME280;23188;51.188;16.374;2022-12-29T12:21:40;99541.45;;;10.84;70.70
37304;BME280;23188;51.188;16.374;2022-12-29T12:34:29;99522.98;;;10.59;69.95
37304;BME280;23188;51.188;16.374;2022-12-29T12:52:26;99528.30;;;10.59;71.71
37304;BME280;23188;51.188;16.374;2022-12-29T12:56:27;99520.09;;;10.52;71.69
37304;BME280;23188;51.188;16.374;2022-12-29T13:00:40;99512.38;;;10.49;71.91
37304;BME280;23188;51.188;16.374;2022-12-29T13:04:46;99510.35;;;10.37;72.03
37304;BME280;23188;51.188;16.374;2022-12-29T13:09:12;99527.28;;;10.36;72.47
37304;BME280;23188;51.188;16.374;2022-12-29T13:17:49;99538.80;;;10.17;73.74
37304;BME280;23188;51.188;16.374;2022-12-29T13:30:19;99550.27;;;9.98;75.42
37304;BME280;23188;51.188;16.374;2022-12-29T13:34:43;99559.16;;;9.93;75.53
37304;BME280;23188;51.188;16.374;2022-12-29T13:38:51;99565.16;;;9.95;76.01
37304;BME280;23188;51.188;16.374;2022-12-29T13:42:56;99553.84;;;9.93;76.07
37304;BME280;23188;51.188;16.374;2022-12-29T13:47:00;99558.58;;;9.99;75.59
37304;BME280;23188;51.188;16.374;2022-12-29T13:51:05;99559.84;;;10.05;76.00
37304;BME280;23188;51.188;16.374;2022-12-29T13:59:57;99563.01;;;10.14;75.98
37304;BME280;23188;51.188;16.374;2022-12-29T14:04:23;99554.18;;;10.13;76.18
37304;BME280;23188;51.188;16.374;2022-12-29T14:08:26;99560.27;;;10.00;76.57
37304;BME280;23188;51.188;16.374;2022-12-29T14:12:38;99559.28;;;10.01;76.51
37304;BME280;23188;51.188;16.374;2022-12-29T14:16:41;99559.03;;;9.94;76.68
37304;BME280;23188;51.188;16.374;2022-12-29T14:20:55;99553.27;;;9.99;76.46
37304;BME280;23188;51.188;16.374;2022-12-29T14:25:02;99552.98;;;9.92;77.05
37304;BME280;23188;51.188;16.374;2022-12-29T14:33:30;99541.81;;;9.79;77.33
37304;BME280;23188;51.188;16.374;2022-12-29T14:37:36;99535.53;;;9.80;77.14
37304;BME280;23188;51.188;16.374;2022-12-29T14:41:39;99535.02;;;9.90;76.97
37304;BME280;23188;51.188;16.374;2022-12-29T14:45:41;99533.44;;;9.93;76.67
37304;BME280;23188;51.188;16.374;2022-12-29T14:49:44;99541.41;;;9.93;76.62
37304;BME280;23188;51.188;16.374;2022-12-29T14:53:50;99554.81;;;9.92;77.10
37304;BME280;23188;51.188;16.374;2022-12-29T14:57:52;99560.01;;;9.93;76.56
37304;BME280;23188;51.188;16.374;2022-12-29T15:01:56;99558.80;;;9.92;76.68
37304;BME280;23188;51.188;16.374;2022-12-29T15:06:06;99559.84;;;9.85;77.00
37304;BME280;23188;51.188;16.374;2022-12-29T15:10:14;99559.15;;;9.83;77.06
37304;BME280;23188;51.188;16.374;2022-12-29T15:14:38;99565.84;;;9.77;77.55
37304;BME280;23188;51.188;16.374;2022-12-29T15:18:41;99565.15;;;9.75;77.86
37304;BME280;23188;51.188;16.374;2022-12-29T15:22:45;99565.91;;;9.71;77.94
37304;BME280;23188;51.188;16.374;2022-12-29T15:26:53;99574.31;;;9.67;78.32
37304;BME280;23188;51.188;16.374;2022-12-29T15:31:01;99574.02;;;9.60;78.18
37304;BME280;23188;51.188;16.374;2022-12-29T15:39:30;99578.55;;;9.54;78.52
37304;BME280;23188;51.188;16.374;2022-12-29T15:43:57;99578.77;;;9.41;78.95
37304;BME280;23188;51.188;16.374;2022-12-29T15:48:05;99582.10;;;9.33;79.21
37304;BME280;23188;51.188;16.374;2022-12-29T15:52:10;99583.40;;;9.23;79.92
37304;BME280;23188;51.188;16.374;2022-12-29T15:56:14;99583.87;;;9.13;80.33
37304;BME280;23188;51.188;16.374;2022-12-29T16:00:21;99573.45;;;9.06;80.56
37304;BME280;23188;51.188;16.374;2022-12-29T16:04:27;99577.86;;;9.11;80.41
37304;BME280;23188;51.188;16.374;2022-12-29T16:08:33;99577.16;;;9.09;80.63
37304;BME280;23188;51.188;16.374;2022-12-29T16:12:37;99577.35;;;9.11;80.51
37304;BME280;23188;51.188;16.374;2022-12-29T16:16:40;99577.00;;;9.10;80.51
37304;BME280;23188;51.188;16.374;2022-12-29T16:20:43;99579.27;;;9.15;79.96
37304;BME280;23188;51.188;16.374;2022-12-29T16:24:45;99581.91;;;9.15;79.88
37304;BME280;23188;51.188;16.374;2022-12-29T16:28:49;99580.81;;;9.18;79.65
37304;BME280;23188;51.188;16.374;2022-12-29T16:32:55;99577.59;;;9.14;79.86
37304;BME280;23188;51.188;16.374;2022-12-29T16:37:23;99580.47;;;9.17;79.75
37304;BME280;23188;51.188;16.374;2022-12-29T16:41:06;99587.77;;;9.09;80.20
37304;BME280;23188;51.188;16.374;2022-12-29T16:49:48;99596.47;;;9.05;80.25
37304;BME280;23188;51.188;16.374;2022-12-29T16:53:53;99598.02;;;9.08;80.02
37304;BME280;23188;51.188;16.374;2022-12-29T16:57:55;99594.31;;;9.05;80.33
37304;BME280;23188;51.188;16.374;2022-12-29T17:01:59;99598.06;;;9.02;80.60
37304;BME280;23188;51.188;16.374;2022-12-29T17:06:03;99593.38;;;9.00;80.31
37304;BME280;23188;51.188;16.374;2022-12-29T17:10:05;99593.46;;;9.04;80.47
37304;BME280;23188;51.188;16.374;2022-12-29T17:18:39;99593.03;;;8.99;80.40
37304;BME280;23188;51.188;16.374;2022-12-29T17:22:40;99593.15;;;8.97;80.45
37304;BME280;23188;51.188;16.374;2022-12-29T17:26:42;99597.63;;;8.97;80.15
37304;BME280;23188;51.188;16.374;2022-12-29T17:30:46;99601.34;;;9.00;80.00
37304;BME280;23188;51.188;16.374;2022-12-29T17:34:47;99610.04;;;8.96;80.53
37304;BME280;23188;51.188;16.374;2022-12-29T17:38:48;99614.47;;;8.86;81.01
37304;BME280;23188;51.188;16.374;2022-12-29T17:42:52;99616.80;;;8.79;81.12
37304;BME280;23188;51.188;16.374;2022-12-29T17:46:55;99621.48;;;8.81;81.39
37304;BME280;23188;51.188;16.374;2022-12-29T17:50:58;99634.16;;;8.78;81.73
37304;BME280;23188;51.188;16.374;2022-12-29T17:54:59;99632.68;;;8.85;81.56
37304;BME280;23188;51.188;16.374;2022-12-29T17:59:00;99636.39;;;8.88;81.53
37304;BME280;23188;51.188;16.374;2022-12-29T18:03:02;99629.29;;;8.83;81.60
37304;BME280;23188;51.188;16.374;2022-12-29T18:07:09;99638.55;;;8.89;81.12
37304;BME280;23188;51.188;16.374;2022-12-29T18:11:24;99644.97;;;8.86;81.12
37304;BME280;23188;51.188;16.374;2022-12-29T18:15:31;99641.58;;;8.84;81.12
37304;BME280;23188;51.188;16.374;2022-12-29T18:19:34;99654.13;;;8.82;81.14
37304;BME280;23188;51.188;16.374;2022-12-29T18:23:36;99658.64;;;8.76;81.26
37304;BME280;23188;51.188;16.374;2022-12-29T18:27:37;99661.20;;;8.71;81.55
37304;BME280;23188;51.188;16.374;2022-12-29T18:31:38;99649.36;;;8.76;81.23
37304;BME280;23188;51.188;16.374;2022-12-29T18:35:44;99652.27;;;8.73;81.48
37304;BME280;23188;51.188;16.374;2022-12-29T18:39:46;99657.81;;;8.75;81.48
37304;BME280;23188;51.188;16.374;2022-12-29T18:43:48;99655.28;;;8.74;81.53
37304;BME280;23188;51.188;16.374;2022-12-29T18:47:50;99652.98;;;8.75;81.88
37304;BME280;23188;51.188;16.374;2022-12-29T18:51:51;99654.31;;;8.75;81.83
37304;BME280;23188;51.188;16.374;2022-12-29T18:55:53;99650.33;;;8.75;81.96
37304;BME280;23188;51.188;16.374;2022-12-29T18:59:56;99648.73;;;8.78;81.95
37304;BME280;23188;51.188;16.374;2022-12-29T19:03:57;99649.86;;;8.75;81.90
37304;BME280;23188;51.188;16.374;2022-12-29T19:07:59;99651.27;;;8.79;81.58
37304;BME280;23188;51.188;16.374;2022-12-29T19:12:00;99649.92;;;8.85;81.05
37304;BME280;23188;51.188;16.374;2022-12-29T19:16:01;99661.09;;;8.89;80.77
37304;BME280;23188;51.188;16.374;2022-12-29T19:20:03;99658.97;;;8.82;80.90
37304;BME280;23188;51.188;16.374;2022-12-29T19:24:05;99660.91;;;8.80;80.65
37304;BME280;23188;51.188;16.374;2022-12-29T19:28:16;99666.57;;;8.81;81.05
37304;BME280;23188;51.188;16.374;2022-12-29T19:32:25;99668.58;;;8.89;80.43
37304;BME280;23188;51.188;16.374;2022-12-29T19:36:26;99667.98;;;8.85;80.60
37304;BME280;23188;51.188;16.374;2022-12-29T19:40:27;99666.92;;;8.82;80.81
37304;BME280;23188;51.188;16.374;2022-12-29T19:44:29;99670.92;;;8.77;81.12
37304;BME280;23188;51.188;16.374;2022-12-29T19:48:31;99665.27;;;8.76;81.46
37304;BME280;23188;51.188;16.374;2022-12-29T19:52:32;99666.23;;;8.75;81.61
37304;BME280;23188;51.188;16.374;2022-12-29T19:56:33;99664.56;;;8.74;81.89
37304;BME280;23188;51.188;16.374;2022-12-29T20:00:37;99668.09;;;8.68;82.19
37304;BME280;23188;51.188;16.374;2022-12-29T20:04:42;99678.44;;;8.71;82.08
37304;BME280;23188;51.188;16.374;2022-12-29T20:08:44;99682.77;;;8.73;82.27
37304;BME280;23188;51.188;16.374;2022-12-29T20:12:46;99683.13;;;8.74;82.35
37304;BME280;23188;51.188;16.374;2022-12-29T20:16:48;99696.98;;;8.77;82.38
37304;BME280;23188;51.188;16.374;2022-12-29T20:20:49;99704.95;;;8.71;82.92
37304;BME280;23188;51.188;16.374;2022-12-29T20:24:51;99700.36;;;8.74;83.14
37304;BME280;23188;51.188;16.374;2022-12-29T20:28:53;99700.27;;;8.69;83.37
37304;BME280;23188;51.188;16.374;2022-12-29T20:32:54;99699.08;;;8.62;83.70
37304;BME280;23188;51.188;16.374;2022-12-29T20:36:56;99698.25;;;8.62;83.71
37304;BME280;23188;51.188;16.374;2022-12-29T20:40:57;99698.01;;;8.59;83.56
37304;BME280;23188;51.188;16.374;2022-12-29T20:44:58;99704.09;;;8.50;83.81
37304;BME280;23188;51.188;16.374;2022-12-29T20:49:01;99703.12;;;8.51;83.56
37304;BME280;23188;51.188;16.374;2022-12-29T20:53:03;99698.52;;;8.47;83.55
37304;BME280;23188;51.188;16.374;2022-12-29T20:57:04;99697.45;;;8.38;84.00
37304;BME280;23188;51.188;16.374;2022-12-29T21:01:07;99694.61;;;8.30;84.24
37304;BME280;23188;51.188;16.374;2022-12-29T21:05:10;99704.16;;;8.21;84.50
37304;BME280;23188;51.188;16.374;2022-12-29T21:09:12;99701.36;;;8.23;84.26
37304;BME280;23188;51.188;16.374;2022-12-29T21:13:14;99703.69;;;8.16;84.68
37304;BME280;23188;51.188;16.374;2022-12-29T21:17:16;99704.92;;;8.06;85.06
37304;BME280;23188;51.188;16.374;2022-12-29T21:21:20;99707.57;;;8.06;85.30
37304;BME280;23188;51.188;16.374;2022-12-29T21:25:23;99711.05;;;8.07;84.82
37304;BME280;23188;51.188;16.374;2022-12-29T21:29:24;99711.55;;;8.06;84.89
37304;BME280;23188;51.188;16.374;2022-12-29T21:33:26;99719.85;;;8.02;85.30
37304;BME280;23188;51.188;16.374;2022-12-29T21:37:27;99720.81;;;7.95;85.56
37304;BME280;23188;51.188;16.374;2022-12-29T21:41:28;99714.09;;;7.91;86.08
37304;BME280;23188;51.188;16.374;2022-12-29T21:45:30;99712.77;;;7.91;86.33
37304;BME280;23188;51.188;16.374;2022-12-29T21:49:33;99713.48;;;7.81;87.35
37304;BME280;23188;51.188;16.374;2022-12-29T21:53:37;99716.13;;;7.87;87.02
37304;BME280;23188;51.188;16.374;2022-12-29T21:57:40;99711.91;;;7.84;87.88
37304;BME280;23188;51.188;16.374;2022-12-29T22:02:01;99710.95;;;7.85;88.18
37304;BME280;23188;51.188;16.374;2022-12-29T22:06:22;99692.52;;;7.95;88.00
37304;BME280;23188;51.188;16.374;2022-12-29T22:10:44;99680.84;;;7.98;87.86
37304;BME280;23188;51.188;16.374;2022-12-29T22:15:05;99697.69;;;8.08;87.26
37304;BME280;23188;51.188;16.374;2022-12-29T22:19:07;99693.46;;;8.11;86.88
37304;BME280;23188;51.188;16.374;2022-12-29T22:23:10;99702.83;;;8.21;86.44
37304;BME280;23188;51.188;16.374;2022-12-29T22:27:11;99691.38;;;8.21;86.21
37304;BME280;23188;51.188;16.374;2022-12-29T22:31:21;99686.30;;;8.29;85.87
37304;BME280;23188;51.188;16.374;2022-12-29T22:35:27;99688.80;;;8.36;85.37
37304;BME280;23188;51.188;16.374;2022-12-29T22:39:28;99696.13;;;8.38;85.20
37304;BME280;23188;51.188;16.374;2022-12-29T22:43:30;99700.98;;;8.33;85.45
37304;BME280;23188;51.188;16.374;2022-12-29T22:47:31;99692.66;;;8.38;85.41
37304;BME280;23188;51.188;16.374;2022-12-29T22:51:32;99691.80;;;8.37;85.69
37304;BME280;23188;51.188;16.374;2022-12-29T22:55:33;99688.19;;;8.38;85.78
37304;BME280;23188;51.188;16.374;2022-12-29T22:59:35;99698.57;;;8.36;85.84
37304;BME280;23188;51.188;16.374;2022-12-29T23:03:36;99708.06;;;8.38;85.88
37304;BME280;23188;51.188;16.374;2022-12-29T23:07:38;99707.45;;;8.40;85.90
37304;BME280;23188;51.188;16.374;2022-12-29T23:11:39;99712.84;;;8.44;85.64
37304;BME280;23188;51.188;16.374;2022-12-29T23:15:40;99709.74;;;8.51;85.48